createdAt,value
2023-03-06T00:02:22.228Z,31.77
2023-03-06T00:04:49.205Z,29.52
2023-03-06T00:07:17.052Z,31.73
2023-03-06T00:09:44.431Z,31.90
2023-03-06T00:12:11.453Z,30.08
2023-03-06T00:14:39.862Z,30.02
2023-03-06T00:17:06.831Z,32.03
2023-03-06T00:19:34.077Z,31.25
2023-03-06T00:22:01.169Z,32.10
2023-03-06T00:24:28.554Z,31.80
2023-03-06T00:26:55.550Z,32.80
2023-03-06T00:29:22.758Z,31.88
2023-03-06T00:31:51.352Z,30.10
2023-03-06T00:34:18.404Z,31.73
2023-03-06T00:36:45.388Z,32.67
2023-03-06T00:39:12.456Z,33.28
2023-03-06T00:41:39.553Z,31.35
2023-03-06T00:44:06.852Z,33.25
2023-03-06T00:46:33.871Z,30.70
2023-03-06T00:49:02.485Z,31.52
2023-03-06T00:51:29.456Z,31.13
2023-03-06T00:53:56.421Z,30.67
2023-03-06T00:56:23.382Z,31.55
2023-03-06T00:58:55.880Z,32.05
2023-03-06T01:01:23.035Z,32.53
2023-03-06T01:03:50.082Z,32.30
2023-03-06T01:06:18.597Z,30.88
2023-03-06T01:08:45.576Z,31.02
2023-03-06T01:11:12.627Z,31.38
2023-03-06T01:13:39.542Z,31.85
2023-03-06T01:16:09.860Z,31.75
2023-03-06T01:18:37.277Z,32.17
2023-03-06T01:21:05.657Z,32.63
2023-03-06T01:23:34.041Z,32.35
2023-03-06T01:26:01.462Z,32.60
2023-03-06T01:28:29.075Z,30.85
2023-03-06T01:30:56.490Z,30.70
2023-03-06T01:33:23.467Z,31.52
2023-03-06T01:35:50.495Z,33.20
2023-03-06T01:38:17.473Z,33.35
2023-03-06T01:40:46.290Z,33.88
2023-03-06T01:43:27.175Z,32.33
2023-03-06T01:46:36.527Z,32.35
2023-03-06T01:49:07.668Z,33.00
2023-03-06T01:51:38.602Z,31.48
2023-03-06T01:54:09.194Z,31.25
2023-03-06T01:56:38.956Z,31.17
2023-03-06T01:59:07.016Z,34.13
2023-03-06T02:01:34.107Z,34.17
2023-03-06T02:04:01.865Z,33.38
2023-03-06T02:06:28.924Z,31.98
2023-03-06T02:08:56.475Z,31.33
2023-03-06T02:11:24.620Z,30.95
2023-03-06T02:13:54.648Z,33.50
2023-03-06T02:16:24.802Z,32.83
2023-03-06T02:18:52.680Z,31.90
2023-03-06T02:21:24.097Z,31.88
2023-03-06T02:24:08.315Z,31.38
2023-03-06T02:26:38.447Z,30.48
2023-03-06T02:29:08.721Z,33.60
2023-03-06T02:31:35.884Z,32.08
2023-03-06T02:34:06.808Z,32.85
2023-03-06T02:36:37.908Z,33.58
2023-03-06T02:39:05.661Z,33.40
2023-03-06T02:41:32.938Z,33.00
2023-03-06T02:44:01.288Z,33.70
2023-03-06T02:46:28.417Z,32.40
2023-03-06T02:48:55.525Z,33.67
2023-03-06T02:51:22.964Z,34.25
2023-03-06T02:53:50.060Z,32.63
2023-03-06T02:56:17.471Z,34.78
2023-03-06T02:58:44.689Z,34.40
2023-03-06T03:01:13.387Z,35.33
2023-03-06T03:03:40.579Z,33.22
2023-03-06T03:06:08.043Z,34.33
2023-03-06T03:08:35.533Z,34.63
2023-03-06T03:11:02.694Z,34.85
2023-03-06T03:13:30.026Z,33.63
2023-03-06T03:16:01.665Z,34.58
2023-03-06T03:18:30.431Z,34.88
2023-03-06T03:21:02.278Z,35.78
2023-03-06T03:23:29.272Z,34.85
2023-03-06T03:25:56.225Z,34.00
2023-03-06T03:28:31.061Z,32.75
2023-03-06T03:31:03.070Z,34.03
2023-03-06T03:33:31.846Z,32.70
2023-03-06T03:36:11.786Z,34.40
2023-03-06T03:38:38.894Z,33.10
2023-03-06T03:41:06.273Z,35.30
2023-03-06T03:43:33.443Z,32.50
2023-03-06T03:46:00.550Z,33.72
2023-03-06T03:48:27.606Z,32.65
2023-03-06T03:51:02.078Z,33.38
2023-03-06T03:53:29.131Z,31.45
2023-03-06T03:55:56.124Z,32.25
2023-03-06T03:58:23.242Z,33.75
2023-03-06T04:00:50.378Z,32.33
2023-03-06T04:03:17.564Z,31.27
2023-03-06T04:05:44.596Z,30.58
2023-03-06T04:08:13.104Z,30.70
2023-03-06T04:10:56.434Z,30.77
2023-03-06T04:13:28.088Z,30.08
2023-03-06T04:15:56.337Z,29.35
2023-03-06T04:18:23.954Z,28.58
2023-03-06T04:20:51.105Z,31.30
2023-03-06T04:23:25.417Z,29.55
2023-03-06T04:25:53.585Z,31.85
2023-03-06T04:28:20.832Z,28.50
2023-03-06T04:30:47.878Z,29.45
2023-03-06T04:33:15.023Z,29.23
2023-03-06T04:35:42.054Z,28.77
2023-03-06T04:38:09.104Z,28.42
2023-03-06T04:40:37.812Z,29.27
2023-03-06T04:43:05.490Z,29.25
2023-03-06T04:45:33.832Z,30.08
2023-03-06T04:48:01.247Z,30.67
2023-03-06T04:50:29.218Z,29.98
2023-03-06T04:52:56.209Z,30.50
2023-03-06T04:55:23.262Z,29.73
2023-03-06T04:57:51.664Z,28.50
2023-03-06T05:00:21.210Z,28.95
2023-03-06T05:02:49.600Z,27.75
2023-03-06T05:05:18.233Z,28.23
2023-03-06T05:07:45.432Z,28.52
2023-03-06T05:10:22.312Z,31.15
2023-03-06T05:12:49.434Z,29.27
2023-03-06T05:15:18.713Z,29.35
2023-03-06T05:17:46.128Z,29.75
2023-03-06T05:20:16.007Z,29.05
2023-03-06T05:22:43.612Z,27.83
2023-03-06T05:25:11.297Z,28.98
2023-03-06T05:27:38.438Z,29.15
2023-03-06T05:30:06.895Z,29.70
2023-03-06T05:32:35.882Z,29.63
2023-03-06T05:35:03.644Z,29.65
2023-03-06T05:37:31.151Z,29.23
2023-03-06T05:39:58.813Z,29.23
2023-03-06T05:42:28.518Z,29.27
2023-03-06T05:44:55.641Z,28.02
2023-03-06T05:47:25.809Z,29.20
2023-03-06T05:49:54.213Z,29.55
2023-03-06T05:52:21.185Z,28.67
2023-03-06T05:54:51.090Z,30.65
2023-03-06T05:57:19.477Z,30.40
2023-03-06T05:59:47.001Z,30.50
2023-03-06T06:02:14.108Z,28.42
2023-03-06T06:04:41.262Z,31.20
2023-03-06T06:07:13.664Z,30.45
2023-03-06T06:09:40.972Z,30.00
2023-03-06T06:12:12.547Z,30.25
2023-03-06T06:14:39.532Z,31.63
2023-03-06T06:17:06.719Z,29.95
2023-03-06T06:19:33.840Z,30.48
2023-03-06T06:22:00.911Z,29.77
2023-03-06T06:24:29.713Z,30.13
2023-03-06T06:26:58.117Z,32.13
2023-03-06T06:29:26.375Z,33.10
2023-03-06T06:31:54.374Z,31.48
2023-03-06T06:34:22.970Z,34.00
2023-03-06T06:36:53.157Z,32.47
2023-03-06T06:39:22.949Z,30.15
2023-03-06T06:42:05.537Z,32.30
2023-03-06T06:44:38.643Z,32.17
2023-03-06T06:47:24.539Z,32.60
2023-03-06T06:50:03.769Z,31.80
2023-03-06T06:52:31.049Z,30.58
2023-03-06T06:54:58.058Z,31.38
2023-03-06T06:57:26.510Z,32.95
2023-03-06T06:59:54.260Z,33.03
2023-03-06T07:02:21.789Z,33.90
2023-03-06T07:05:02.452Z,33.38
2023-03-06T07:07:30.648Z,33.83
2023-03-06T07:09:57.627Z,32.28
2023-03-06T07:12:26.062Z,33.88
2023-03-06T07:14:53.041Z,33.78
2023-03-06T07:17:22.865Z,31.83
2023-03-06T07:19:53.201Z,32.88
2023-03-06T07:22:22.644Z,33.40
2023-03-06T07:24:49.849Z,31.48
2023-03-06T07:27:16.900Z,33.28
2023-03-06T07:29:48.233Z,34.17
2023-03-06T07:32:15.302Z,33.28
2023-03-06T07:34:42.342Z,33.05
2023-03-06T07:37:09.283Z,33.47
2023-03-06T07:39:36.602Z,33.88
2023-03-06T07:42:03.920Z,32.97
2023-03-06T07:44:31.022Z,34.25
2023-03-06T07:46:59.468Z,34.88
2023-03-06T07:49:26.488Z,34.05
2023-03-06T07:51:53.618Z,35.00
2023-03-06T07:54:20.595Z,34.58
2023-03-06T07:56:50.443Z,32.17
2023-03-06T07:59:17.473Z,34.10
2023-03-06T08:01:45.141Z,34.55
2023-03-06T08:04:13.525Z,33.88
2023-03-06T08:06:40.565Z,34.20
2023-03-06T08:09:07.912Z,35.33
2023-03-06T08:11:34.912Z,33.58
2023-03-06T08:14:01.893Z,34.22
2023-03-06T08:16:30.300Z,32.28
2023-03-06T08:18:57.443Z,32.45
2023-03-06T08:21:27.633Z,33.97
2023-03-06T08:23:54.997Z,35.20
2023-03-06T08:26:24.445Z,33.58
2023-03-06T08:28:51.642Z,33.63
2023-03-06T08:31:31.513Z,33.67
2023-03-06T08:34:00.156Z,32.55
2023-03-06T08:36:28.622Z,31.08
2023-03-06T08:38:56.172Z,33.67
2023-03-06T08:41:23.793Z,33.90
2023-03-06T08:43:51.215Z,32.78
2023-03-06T08:46:19.076Z,33.45
2023-03-06T08:48:46.528Z,32.80
2023-03-06T08:51:14.101Z,33.45
2023-03-06T08:53:44.183Z,33.20
2023-03-06T08:56:16.282Z,32.53
2023-03-06T08:58:43.354Z,32.28
2023-03-06T09:01:13.633Z,32.65
2023-03-06T09:03:40.668Z,32.50
2023-03-06T09:06:07.633Z,31.80
2023-03-06T09:08:34.584Z,30.85
2023-03-06T09:11:03.007Z,32.72
2023-03-06T09:13:30.110Z,30.85
2023-03-06T09:15:57.015Z,31.83
2023-03-06T09:18:24.077Z,30.40
2023-03-06T09:20:51.214Z,29.65
2023-03-06T09:23:18.297Z,31.10
2023-03-06T09:25:45.212Z,30.38
2023-03-06T09:28:13.570Z,29.77
2023-03-06T09:30:41.053Z,32.55
2023-03-06T09:33:08.151Z,31.30
2023-03-06T09:35:35.300Z,29.15
2023-03-06T09:38:02.433Z,29.00
2023-03-06T09:40:45.562Z,29.58
2023-03-06T09:43:21.255Z,27.63
2023-03-06T09:45:48.284Z,26.60
2023-03-06T09:48:16.665Z,28.85
2023-03-06T09:50:48.238Z,26.83
2023-03-06T09:53:31.936Z,26.85
2023-03-06T09:56:03.013Z,25.33
2023-03-06T09:58:37.598Z,26.65
2023-03-06T10:01:11.688Z,28.77
2023-03-06T10:03:46.078Z,24.50
2023-03-06T10:06:18.750Z,24.30
2023-03-06T10:08:51.483Z,26.88
2023-03-06T10:11:22.272Z,28.13
2023-03-06T10:13:54.047Z,28.13
2023-03-06T10:16:27.549Z,25.27
2023-03-06T10:18:55.519Z,30.30
2023-03-06T10:21:43.187Z,29.05
2023-03-06T10:24:22.516Z,26.42
2023-03-06T10:26:52.642Z,29.30
2023-03-06T10:29:50.167Z,28.85
2023-03-06T10:32:46.311Z,27.95
2023-03-06T10:35:19.138Z,25.42
2023-03-06T10:37:46.153Z,28.15
2023-03-06T10:40:17.268Z,28.70
2023-03-06T10:42:44.304Z,29.00
2023-03-06T10:45:15.752Z,28.45
2023-03-06T10:47:43.237Z,29.20
2023-03-06T10:50:25.409Z,28.05
2023-03-06T10:53:03.671Z,29.27
2023-03-06T10:55:32.643Z,26.55
2023-03-06T10:58:18.183Z,29.10
2023-03-06T11:00:49.219Z,28.00
2023-03-06T11:03:20.375Z,28.42
2023-03-06T11:06:00.086Z,28.38
2023-03-06T11:08:27.024Z,27.35
2023-03-06T11:11:01.989Z,28.20
2023-03-06T11:16:02.543Z,26.55
2023-03-06T11:18:34.247Z,25.02
2023-03-06T11:21:03.886Z,22.40
2023-03-06T11:23:42.523Z,20.75
2023-03-06T11:26:32.686Z,21.92
2023-03-06T11:29:11.251Z,22.13
2023-03-06T11:31:46.057Z,22.17
2023-03-06T11:34:18.835Z,17.90
2023-03-06T11:36:49.740Z,20.00
2023-03-06T11:39:26.824Z,23.70
2023-03-06T11:42:01.136Z,24.30
2023-03-06T11:44:36.928Z,26.08
2023-03-06T11:47:16.336Z,24.95
2023-03-06T11:49:46.662Z,26.67
2023-03-06T11:52:22.453Z,24.13
2023-03-06T11:54:54.689Z,25.70
2023-03-06T11:57:25.624Z,24.85
2023-03-06T12:00:22.708Z,20.13
2023-03-06T12:03:19.337Z,21.92
2023-03-06T12:05:52.432Z,22.17
2023-03-06T12:08:43.920Z,24.33
2023-03-06T12:11:19.512Z,25.15
2023-03-06T12:14:04.079Z,23.60
2023-03-06T12:16:50.079Z,22.63
2023-03-06T12:19:29.644Z,23.52
2023-03-06T12:22:12.859Z,20.52
2023-03-06T12:24:59.153Z,22.52
2023-03-06T12:27:35.910Z,22.88
2023-03-06T12:30:22.810Z,23.92
2023-03-06T12:32:57.550Z,23.15
2023-03-06T12:35:43.177Z,25.10
2023-03-06T12:38:31.443Z,22.55
2023-03-06T12:41:06.794Z,22.88
2023-03-06T12:44:04.358Z,19.05
2023-03-06T12:46:38.559Z,23.48
2023-03-06T12:49:17.821Z,23.42
2023-03-06T12:51:50.727Z,26.02
2023-03-06T12:54:21.747Z,22.92
2023-03-06T12:56:49.385Z,23.85
2023-03-06T12:59:49.737Z,25.00
2023-03-06T13:02:50.285Z,26.23
2023-03-06T13:05:58.335Z,22.85
2023-03-06T13:08:53.008Z,25.88
2023-03-06T13:11:48.804Z,22.50
2023-03-06T13:16:49.075Z,26.83
2023-03-06T13:19:19.190Z,24.33
2023-03-06T13:22:02.652Z,25.13
2023-03-06T13:24:32.303Z,25.17
2023-03-06T13:27:06.800Z,26.08
2023-03-06T13:30:16.377Z,20.58
2023-03-06T13:32:43.376Z,26.73
2023-03-06T13:35:45.980Z,28.38
2023-03-06T13:38:37.062Z,23.08
2023-03-06T13:41:26.882Z,24.40
2023-03-06T13:43:56.568Z,22.40
2023-03-06T13:46:27.079Z,23.95
2023-03-06T13:49:17.789Z,20.13
2023-03-06T13:52:05.145Z,25.63
2023-03-06T13:54:46.562Z,22.75
2023-03-06T13:57:42.760Z,21.05
2023-03-06T14:00:30.902Z,22.63
2023-03-06T14:03:30.316Z,21.17
2023-03-06T14:05:57.445Z,17.92
2023-03-06T14:08:27.244Z,20.50
2023-03-06T14:11:02.740Z,20.55
2023-03-06T14:13:46.670Z,18.77
2023-03-06T14:16:21.601Z,20.93
2023-03-06T14:18:50.472Z,20.27
2023-03-06T14:21:28.037Z,21.92
2023-03-06T14:24:00.565Z,22.67
2023-03-06T14:26:31.734Z,20.48
2023-03-06T14:29:00.535Z,20.90
2023-03-06T14:31:32.339Z,20.27
2023-03-06T14:34:01.162Z,20.80
2023-03-06T14:36:33.895Z,17.38
2023-03-06T14:39:05.261Z,19.20
2023-03-06T14:41:34.392Z,20.85
2023-03-06T14:44:09.637Z,20.90
2023-03-06T14:46:38.309Z,21.20
2023-03-06T14:49:07.553Z,21.38
2023-03-06T14:51:40.219Z,20.55
2023-03-06T14:54:10.391Z,21.30
2023-03-06T14:56:40.983Z,19.58
2023-03-06T14:59:12.845Z,17.15
2023-03-06T15:01:43.563Z,18.23
2023-03-06T15:04:27.222Z,19.00
2023-03-06T15:06:56.466Z,17.73
2023-03-06T15:09:26.570Z,18.63
2023-03-06T15:11:56.452Z,18.38
2023-03-06T15:14:34.424Z,19.52
2023-03-06T15:17:24.317Z,16.83
2023-03-06T15:19:53.218Z,14.32
2023-03-06T15:22:27.461Z,16.92
2023-03-06T15:25:06.404Z,15.23
2023-03-06T15:27:33.723Z,15.90
2023-03-06T15:30:12.638Z,14.60
2023-03-06T15:32:41.112Z,15.48
2023-03-06T15:35:28.725Z,16.33
2023-03-06T15:37:56.077Z,15.77
2023-03-06T15:40:25.054Z,14.60
2023-03-06T15:42:52.159Z,12.95
2023-03-06T15:45:21.686Z,15.30
2023-03-06T15:47:51.524Z,13.52
2023-03-06T15:50:20.907Z,14.32
2023-03-06T15:52:49.080Z,14.98
2023-03-06T15:55:18.512Z,14.43
2023-03-06T15:57:49.740Z,13.32
2023-03-06T16:00:27.738Z,14.30
2023-03-06T16:02:56.757Z,14.23
2023-03-06T16:05:24.673Z,14.18
2023-03-06T16:07:52.022Z,12.95
2023-03-06T16:10:20.763Z,14.65
2023-03-06T16:12:50.183Z,16.58
2023-03-06T16:15:20.000Z,14.02
2023-03-06T16:17:47.266Z,14.68
2023-03-06T16:20:18.307Z,14.75
2023-03-06T16:22:46.550Z,14.93
2023-03-06T16:25:14.548Z,14.82
2023-03-06T16:27:42.822Z,12.95
2023-03-06T16:30:18.060Z,14.77
2023-03-06T16:32:46.022Z,15.15
2023-03-06T16:35:15.278Z,15.35
2023-03-06T16:37:42.608Z,14.77
2023-03-06T16:40:18.361Z,15.35
2023-03-06T16:42:45.586Z,13.45
2023-03-06T16:45:12.843Z,15.40
2023-03-06T16:47:40.034Z,13.23
2023-03-06T16:50:19.038Z,15.23
2023-03-06T16:52:47.418Z,13.05
2023-03-06T16:55:14.986Z,13.52
2023-03-06T16:57:42.222Z,15.93
2023-03-06T17:00:10.365Z,14.57
2023-03-06T17:02:38.035Z,14.77
2023-03-06T17:05:05.810Z,14.45
2023-03-06T17:07:33.289Z,15.75
2023-03-06T17:10:01.868Z,14.73
2023-03-06T17:12:29.278Z,13.40
2023-03-06T17:14:56.355Z,12.15
2023-03-06T17:17:23.945Z,16.02
2023-03-06T17:19:51.508Z,15.13
2023-03-06T17:22:19.444Z,13.00
2023-03-06T17:24:46.899Z,15.52
2023-03-06T17:27:15.300Z,15.05
2023-03-06T17:29:42.356Z,16.65
2023-03-06T17:32:09.420Z,12.25
2023-03-06T17:34:36.376Z,14.57
2023-03-06T17:37:03.517Z,13.23
2023-03-06T17:39:32.484Z,16.60
2023-03-06T17:41:59.451Z,16.05
2023-03-06T17:44:28.192Z,16.52
2023-03-06T17:46:55.688Z,16.25
2023-03-06T17:49:22.953Z,14.38
2023-03-06T17:51:49.981Z,17.17
2023-03-06T17:54:17.078Z,17.35
2023-03-06T17:56:44.578Z,16.27
2023-03-06T17:59:11.770Z,18.55
2023-03-06T18:01:40.272Z,15.93
2023-03-06T18:04:07.317Z,14.52
2023-03-06T18:06:34.704Z,15.35
2023-03-06T18:09:01.764Z,16.02
2023-03-06T18:11:29.399Z,16.70
2023-03-06T18:13:56.723Z,16.52
2023-03-06T18:16:26.203Z,16.33
2023-03-06T18:18:56.486Z,15.80
2023-03-06T18:21:24.890Z,13.90
2023-03-06T18:23:51.864Z,15.77
2023-03-06T18:26:21.032Z,12.93
2023-03-06T18:28:51.267Z,15.73
2023-03-06T18:31:19.955Z,13.95
2023-03-06T18:33:48.634Z,14.18
2023-03-06T18:36:17.962Z,13.70
2023-03-06T18:38:45.507Z,14.60
2023-03-06T18:41:13.589Z,13.23
2023-03-06T18:43:40.802Z,15.13
2023-03-06T18:46:08.211Z,13.98
2023-03-06T18:48:35.822Z,13.82
2023-03-06T18:51:07.420Z,10.38
2023-03-06T18:53:36.410Z,14.02
2023-03-06T18:56:06.027Z,13.40
2023-03-06T18:58:33.327Z,12.07
2023-03-06T19:01:05.049Z,14.45
2023-03-06T19:03:32.128Z,13.35
2023-03-06T19:05:59.147Z,14.10
2023-03-06T19:08:26.218Z,14.52
2023-03-06T19:10:54.694Z,16.17
2023-03-06T19:13:21.943Z,13.73
2023-03-06T19:15:49.529Z,15.18
2023-03-06T19:18:17.702Z,15.85
2023-03-06T19:20:45.593Z,13.95
2023-03-06T19:23:12.839Z,14.13
2023-03-06T19:25:40.086Z,15.27
2023-03-06T19:28:08.509Z,15.70
2023-03-06T19:30:35.515Z,13.48
2023-03-06T19:33:02.588Z,15.27
2023-03-06T19:35:29.694Z,12.48
2023-03-06T19:37:57.102Z,16.88
2023-03-06T19:40:24.079Z,15.02
2023-03-06T19:42:51.032Z,14.65
2023-03-06T19:45:19.631Z,13.20
2023-03-06T19:47:46.633Z,15.27
2023-03-06T19:50:13.632Z,13.90
2023-03-06T19:52:40.976Z,13.90
2023-03-06T19:55:09.022Z,13.13
2023-03-06T19:57:36.015Z,13.25
2023-03-06T20:00:03.446Z,11.35
2023-03-06T20:02:31.860Z,12.60
2023-03-06T20:04:58.813Z,14.02
2023-03-06T20:07:25.829Z,13.15
2023-03-06T20:09:52.887Z,11.25
2023-03-06T20:12:19.830Z,13.05
2023-03-06T20:14:46.863Z,13.35
2023-03-06T20:17:13.868Z,10.82
2023-03-06T20:19:42.565Z,13.73
2023-03-06T20:22:09.698Z,12.70
2023-03-06T20:24:36.747Z,14.45
2023-03-06T20:27:03.875Z,10.80
2023-03-06T20:29:31.770Z,11.23
2023-03-06T20:31:59.322Z,12.95
2023-03-06T20:34:26.570Z,12.52
2023-03-06T20:36:55.150Z,11.32
2023-03-06T20:39:22.459Z,10.82
2023-03-06T20:41:50.074Z,11.80
2023-03-06T20:44:19.982Z,11.57
2023-03-06T20:46:47.105Z,12.13
2023-03-06T20:49:14.552Z,10.77
2023-03-06T20:51:41.971Z,12.07
2023-03-06T20:54:12.025Z,12.50
2023-03-06T20:56:41.351Z,11.50
2023-03-06T20:59:10.743Z,10.55
2023-03-06T21:01:39.533Z,12.30
2023-03-06T21:04:13.937Z,10.02
2023-03-06T21:06:42.239Z,12.30
2023-03-06T21:09:10.735Z,10.82
2023-03-06T21:11:37.964Z,10.77
2023-03-06T21:14:04.996Z,11.82
2023-03-06T21:16:32.160Z,12.63
2023-03-06T21:19:00.848Z,12.45
2023-03-06T21:21:30.396Z,12.98
2023-03-06T21:23:57.510Z,13.93
2023-03-06T21:26:27.947Z,12.90
2023-03-06T21:28:56.556Z,15.68
2023-03-06T21:31:23.554Z,13.73
2023-03-06T21:33:51.151Z,15.80
2023-03-06T21:36:19.454Z,13.88
2023-03-06T21:38:47.499Z,13.55
2023-03-06T21:41:16.353Z,14.73
2023-03-06T21:43:44.901Z,15.52
2023-03-06T21:46:12.443Z,12.18
2023-03-06T21:48:39.625Z,14.55
2023-03-06T21:51:08.138Z,13.23
2023-03-06T21:53:35.585Z,15.73
2023-03-06T21:56:03.136Z,15.48
2023-03-06T21:58:30.352Z,15.57
2023-03-06T22:00:59.098Z,13.38
2023-03-06T22:03:26.331Z,15.40
2023-03-06T22:05:53.494Z,14.88
2023-03-06T22:08:21.080Z,16.17
2023-03-06T22:10:48.719Z,14.60
2023-03-06T22:13:16.352Z,12.25
2023-03-06T22:15:50.736Z,14.10
2023-03-06T22:18:19.188Z,11.77
2023-03-06T22:20:46.212Z,14.27
2023-03-06T22:23:13.197Z,15.02
2023-03-06T22:25:40.565Z,13.63
2023-03-06T22:28:07.561Z,16.33
2023-03-06T22:30:34.749Z,13.73
2023-03-06T22:33:01.800Z,15.85
2023-03-06T22:35:30.460Z,14.20
2023-03-06T22:37:57.750Z,14.60
2023-03-06T22:40:25.757Z,13.95
2023-03-06T22:42:52.786Z,14.27
2023-03-06T22:45:19.842Z,15.32
2023-03-06T22:47:47.198Z,15.48
2023-03-06T22:50:14.464Z,15.20
2023-03-06T22:52:43.034Z,15.77
2023-03-06T22:55:10.616Z,13.10
2023-03-06T22:57:37.587Z,13.75
2023-03-06T23:00:05.568Z,14.70
2023-03-06T23:02:33.452Z,15.07
2023-03-06T23:05:00.410Z,16.08
2023-03-06T23:07:27.381Z,13.85
2023-03-06T23:09:55.831Z,11.50
2023-03-06T23:12:22.843Z,13.65
2023-03-06T23:14:50.215Z,13.00
2023-03-06T23:17:17.558Z,11.80
2023-03-06T23:19:44.610Z,11.80
2023-03-06T23:22:11.685Z,11.73
2023-03-06T23:24:38.824Z,13.50
2023-03-06T23:27:07.233Z,14.18
2023-03-06T23:29:34.223Z,14.50
2023-03-06T23:32:01.418Z,13.48
2023-03-06T23:34:28.409Z,13.68
2023-03-06T23:36:55.690Z,15.98
2023-03-06T23:39:22.700Z,15.50
2023-03-06T23:41:49.704Z,11.40
2023-03-06T23:44:18.984Z,13.52
2023-03-06T23:46:46.198Z,14.30
2023-03-06T23:49:13.169Z,14.07
2023-03-06T23:51:40.126Z,13.52
2023-03-06T23:54:07.479Z,13.23
2023-03-06T23:56:34.486Z,14.00
2023-03-06T23:59:01.688Z,13.90
